Time;durP1;ratioP1;P1;durP2;ratioP2;P2;SDS_P1;SDS_P2;PMS_P1;PMS_P2;Temp;Humidity;BMP_temperature;BMP_pressure;BME280_temperature;BME280_humidity;BME280_pressure;Samples;Min_cycle;Max_cycle;Signal;HPM_P1;HPM_P2
2023/05/28 00:00:52;;;;;;;;;;;21.00;60.80;;;;;;5095034;28;19904;-71
2023/05/28 00:03:19;;;;;;;;;;;20.90;60.70;;;;;;5094700;28;19908;-70
2023/05/28 00:05:44;;;;;;;;;;;21.00;60.70;;;;;;5094579;28;19904;-70
2023/05/28 00:08:10;;;;;;;;;;;20.90;60.50;;;;;;5094698;28;19911;-71
2023/05/28 00:10:35;;;;;;;;;;;21.00;60.40;;;;;;5094344;28;20400;-71
2023/05/28 00:13:01;;;;;;;;;;;20.90;60.20;;;;;;5094674;28;20266;-70
2023/05/28 00:15:27;;;;;;;;;;;20.90;60.10;;;;;;5094646;28;20338;-71
2023/05/28 00:17:53;;;;;;;;;;;20.90;60.10;;;;;;5094291;28;19916;-71
2023/05/28 00:20:19;;;;;;;;;;;20.90;60.00;;;;;;5076466;28;20336;-70
2023/05/28 00:22:45;;;;;;;;;;;20.80;60.00;;;;;;5094270;28;20002;-71
2023/05/28 00:25:11;;;;;;;;;;;20.80;60.00;;;;;;5094343;28;19908;-70
2023/05/28 00:27:37;;;;;;;;;;;20.80;59.80;;;;;;5094367;28;19908;-71
2023/05/28 00:30:02;;;;;;;;;;;20.80;59.90;;;;;;5094667;28;19934;-70
2023/05/28 00:32:28;;;;;;;;;;;20.70;59.80;;;;;;5094217;28;20316;-70
2023/05/28 00:34:53;;;;;;;;;;;20.70;59.80;;;;;;5094378;28;19916;-71
2023/05/28 00:37:19;;;;;;;;;;;20.70;59.80;;;;;;5094295;28;19904;-70
2023/05/28 00:39:44;;;;;;;;;;;20.70;59.70;;;;;;5094166;28;20018;-71
2023/05/28 00:42:12;;;;;;;;;;;20.60;59.50;;;;;;5094144;28;19904;-70
2023/05/28 00:44:39;;;;;;;;;;;20.60;59.30;;;;;;5076093;28;19912;-71
2023/05/28 00:47:04;;;;;;;;;;;20.60;59.20;;;;;;5075834;28;19943;-71
2023/05/28 00:49:32;;;;;;;;;;;20.60;59.20;;;;;;5093916;28;19969;-71
2023/05/28 00:51:58;;;;;;;;;;;20.50;59.10;;;;;;5093696;28;19942;-71
2023/05/28 00:54:25;;;;;;;;;;;20.50;58.80;;;;;;5094094;28;19908;-72
2023/05/28 00:56:52;;;;;;;;;;;20.50;59.00;;;;;;5093867;28;20472;-70
2023/05/28 00:59:18;;;;;;;;;;;20.40;58.70;;;;;;5093939;28;19999;-70
2023/05/28 01:01:44;;;;;;;;;;;20.40;58.60;;;;;;5094028;28;20314;-71
2023/05/28 01:04:10;;;;;;;;;;;20.40;58.50;;;;;;5096161;28;19904;-71
2023/05/28 01:06:39;;;;;;;;;;;20.30;58.40;;;;;;5097929;28;19914;-71
2023/05/28 01:09:08;;;;;;;;;;;20.30;58.70;;;;;;5079931;28;19946;-71
2023/05/28 01:11:34;;;;;;;;;;;20.20;58.50;;;;;;5097993;28;19908;-70
2023/05/28 01:14:00;;;;;;;;;;;20.20;58.40;;;;;;5098057;28;20330;-71
2023/05/28 01:16:27;;;;;;;;;;;20.20;58.40;;;;;;5097826;28;19998;-72
2023/05/28 01:18:55;;;;;;;;;;;20.10;58.40;;;;;;5097929;28;19916;-71
2023/05/28 01:21:22;;;;;;;;;;;20.20;58.50;;;;;;5097937;28;20293;-71
2023/05/28 01:23:48;;;;;;;;;;;20.10;58.30;;;;;;5097888;28;19904;-72
2023/05/28 01:26:14;;;;;;;;;;;20.10;58.40;;;;;;5079605;28;19904;-72
2023/05/28 01:28:49;;;;;;;;;;;20.10;58.30;;;;;;5079448;28;19946;-71
2023/05/28 01:31:16;;;;;;;;;;;20.10;58.30;;;;;;5097472;28;19912;-71
2023/05/28 01:33:42;;;;;;;;;;;20.00;58.00;;;;;;5097335;28;19957;-72
2023/05/28 01:36:13;;;;;;;;;;;20.00;58.20;;;;;;5097604;28;19908;-71
2023/05/28 01:38:43;;;;;;;;;;;20.00;58.20;;;;;;5097397;28;19910;-70
2023/05/28 01:41:08;;;;;;;;;;;20.00;58.10;;;;;;5097419;28;20297;-71
2023/05/28 01:43:34;;;;;;;;;;;20.00;57.90;;;;;;5097515;28;19904;-71
2023/05/28 01:46:00;;;;;;;;;;;20.00;58.00;;;;;;5097237;28;19904;-70
2023/05/28 01:48:27;;;;;;;;;;;19.90;57.70;;;;;;5078767;28;19998;-71
2023/05/28 01:50:53;;;;;;;;;;;19.90;57.60;;;;;;5097634;28;19915;-71
2023/05/28 01:53:18;;;;;;;;;;;19.90;57.90;;;;;;5097176;28;19934;-70
2023/05/28 01:55:44;;;;;;;;;;;19.80;57.70;;;;;;5097040;28;19995;-71
2023/05/28 01:58:10;;;;;;;;;;;19.80;57.90;;;;;;5097095;28;19904;-71
2023/05/28 02:00:40;;;;;;;;;;;19.70;57.80;;;;;;5097056;28;20407;-71
2023/05/28 02:03:07;;;;;;;;;;;19.70;58.00;;;;;;5079077;28;20306;-69
2023/05/28 02:05:32;;;;;;;;;;;19.70;57.70;;;;;;5096809;28;19946;-70
2023/05/28 02:07:58;;;;;;;;;;;19.70;57.80;;;;;;5096959;28;19904;-70
2023/05/28 02:10:24;;;;;;;;;;;19.60;57.70;;;;;;5096826;28;20351;-72
2023/05/28 02:12:49;;;;;;;;;;;19.60;57.80;;;;;;5097042;28;19933;-70
2023/05/28 02:15:15;;;;;;;;;;;19.60;57.70;;;;;;5095613;28;20365;-70
2023/05/28 02:17:43;;;;;;;;;;;19.50;57.40;;;;;;5096678;28;19916;-70
2023/05/28 02:20:09;;;;;;;;;;;19.50;57.70;;;;;;5096761;28;19911;-70
2023/05/28 02:22:34;;;;;;;;;;;19.50;57.80;;;;;;5078510;28;20270;-70
2023/05/28 02:25:00;;;;;;;;;;;19.50;57.80;;;;;;5097046;28;19904;-71
2023/05/28 02:27:26;;;;;;;;;;;19.50;57.70;;;;;;5096675;28;19908;-71
2023/05/28 02:29:51;;;;;;;;;;;19.50;57.80;;;;;;5096315;28;19930;-70
2023/05/28 02:32:17;;;;;;;;;;;19.50;57.80;;;;;;5096473;28;19979;-70
2023/05/28 02:34:42;;;;;;;;;;;19.50;57.90;;;;;;5096492;28;19908;-71
2023/05/28 02:37:08;;;;;;;;;;;19.40;57.80;;;;;;5096663;28;19911;-70
2023/05/28 02:39:34;;;;;;;;;;;19.40;57.80;;;;;;5078166;28;19999;-71
2023/05/28 02:42:00;;;;;;;;;;;19.40;57.80;;;;;;5096393;28;20011;-71
2023/05/28 02:44:26;;;;;;;;;;;19.40;57.80;;;;;;5096117;28;19994;-71
2023/05/28 02:46:51;;;;;;;;;;;19.40;57.70;;;;;;5077999;28;19950;-72
2023/05/28 02:49:17;;;;;;;;;;;19.40;57.80;;;;;;5078673;28;19908;-71
2023/05/28 02:51:42;;;;;;;;;;;19.40;57.80;;;;;;5096056;28;19915;-71
2023/05/28 02:54:08;;;;;;;;;;;19.40;57.70;;;;;;5077949;28;20285;-71
2023/05/28 02:56:34;;;;;;;;;;;19.40;57.70;;;;;;5077902;28;19904;-71
2023/05/28 02:58:59;;;;;;;;;;;19.40;57.60;;;;;;5096111;28;19904;-71
2023/05/28 03:01:26;;;;;;;;;;;19.40;57.70;;;;;;5096243;28;19908;-71
2023/05/28 03:03:52;;;;;;;;;;;19.40;58.30;;;;;;5095976;28;19911;-70
2023/05/28 03:06:17;;;;;;;;;;;19.40;57.70;;;;;;5096069;28;19908;-70
2023/05/28 03:08:43;;;;;;;;;;;19.30;57.80;;;;;;5095567;28;19904;-70
2023/05/28 03:11:08;;;;;;;;;;;19.30;57.70;;;;;;5095483;28;20282;-70
2023/05/28 03:13:34;;;;;;;;;;;19.30;57.70;;;;;;5077370;28;19957;-70
2023/05/28 03:15:59;;;;;;;;;;;19.30;57.70;;;;;;5095638;28;19908;-71
2023/05/28 03:18:25;;;;;;;;;;;19.20;57.80;;;;;;5095688;28;19969;-71
2023/05/28 03:20:51;;;;;;;;;;;19.20;57.80;;;;;;5095521;28;20354;-70
2023/05/28 03:23:17;;;;;;;;;;;19.20;57.80;;;;;;5095430;28;19908;-70
2023/05/28 03:25:42;;;;;;;;;;;19.20;57.80;;;;;;5095396;28;19908;-71
2023/05/28 03:28:08;;;;;;;;;;;19.20;57.80;;;;;;5095458;28;19904;-71
2023/05/28 03:30:33;;;;;;;;;;;19.10;57.80;;;;;;5095153;28;19960;-70
2023/05/28 03:32:59;;;;;;;;;;;19.10;57.80;;;;;;5095380;28;20350;-70
2023/05/28 03:35:24;;;;;;;;;;;19.10;57.80;;;;;;5095428;28;19904;-71
2023/05/28 03:37:50;;;;;;;;;;;19.10;57.90;;;;;;5095034;28;19922;-70
2023/05/28 03:40:15;;;;;;;;;;;19.10;58.00;;;;;;5095552;28;20078;-70
2023/05/28 03:42:41;;;;;;;;;;;19.10;58.00;;;;;;5095483;28;19911;-70
2023/05/28 03:45:07;;;;;;;;;;;19.10;58.00;;;;;;5094869;28;20284;-70
2023/05/28 03:47:33;;;;;;;;;;;19.10;58.00;;;;;;5095096;28;19911;-70
2023/05/28 03:49:59;;;;;;;;;;;19.10;58.00;;;;;;5095292;28;20357;-71
2023/05/28 03:52:25;;;;;;;;;;;19.10;58.00;;;;;;5077035;28;19964;-71
2023/05/28 03:54:50;;;;;;;;;;;19.20;58.00;;;;;;5094994;28;20322;-71
2023/05/28 03:57:16;;;;;;;;;;;19.20;57.90;;;;;;5094719;28;19908;-71
2023/05/28 03:59:41;;;;;;;;;;;19.20;57.80;;;;;;5094634;28;19911;-71
2023/05/28 04:02:07;;;;;;;;;;;19.30;57.80;;;;;;5094899;28;20339;-70
2023/05/28 04:04:32;;;;;;;;;;;19.30;57.60;;;;;;5094729;28;19904;-70
2023/05/28 04:06:58;;;;;;;;;;;19.30;57.70;;;;;;5094649;28;20370;-71
2023/05/28 04:09:23;;;;;;;;;;;19.30;57.60;;;;;;5094875;28;19904;-71
2023/05/28 04:11:49;;;;;;;;;;;19.40;57.60;;;;;;5094304;28;19908;-71
2023/05/28 04:14:14;;;;;;;;;;;19.40;57.50;;;;;;5094553;28;19954;-71
2023/05/28 04:16:40;;;;;;;;;;;19.40;57.30;;;;;;5094319;28;19990;-72
2023/05/28 04:19:05;;;;;;;;;;;19.50;57.40;;;;;;5094509;28;20392;-71
2023/05/28 04:21:31;;;;;;;;;;;19.50;57.50;;;;;;5094688;28;19904;-72
2023/05/28 04:23:57;;;;;;;;;;;19.50;57.30;;;;;;5094058;28;19953;-70
2023/05/28 04:26:23;;;;;;;;;;;19.60;57.30;;;;;;5094244;28;20362;-71
2023/05/28 04:28:50;;;;;;;;;;;19.60;57.20;;;;;;5094622;28;20007;-71
2023/05/28 04:31:16;;;;;;;;;;;19.60;57.10;;;;;;5093498;28;20247;-71
2023/05/28 04:33:46;;;;;;;;;;;19.70;57.10;;;;;;5094231;28;19915;-71
2023/05/28 04:36:13;;;;;;;;;;;19.70;57.10;;;;;;5076268;28;19908;-71
2023/05/28 04:38:39;;;;;;;;;;;19.80;57.00;;;;;;5075407;28;20369;-71
2023/05/28 04:41:05;;;;;;;;;;;19.80;56.90;;;;;;5094340;28;19904;-72
2023/05/28 04:43:31;;;;;;;;;;;19.80;56.90;;;;;;5093708;28;19915;-71
2023/05/28 04:45:58;;;;;;;;;;;19.90;56.80;;;;;;5075837;28;19947;-71
2023/05/28 04:48:25;;;;;;;;;;;19.90;56.80;;;;;;5093988;28;19904;-71
2023/05/28 04:50:51;;;;;;;;;;;20.00;56.80;;;;;;5093442;28;20366;-71
2023/05/28 04:53:16;;;;;;;;;;;20.00;56.80;;;;;;5075987;28;19923;-71
2023/05/28 04:55:42;;;;;;;;;;;19.90;56.50;;;;;;5094106;28;19958;-72
2023/05/28 04:58:08;;;;;;;;;;;20.00;56.60;;;;;;5094020;28;19904;-70
2023/05/28 05:00:34;;;;;;;;;;;19.90;56.40;;;;;;5094266;28;20269;-70
2023/05/28 05:03:00;;;;;;;;;;;19.90;56.40;;;;;;5094098;28;19947;-70
2023/05/28 05:05:25;;;;;;;;;;;19.90;56.60;;;;;;5093766;28;19994;-70
2023/05/28 05:07:51;;;;;;;;;;;19.90;56.60;;;;;;5093794;28;20243;-70
2023/05/28 05:10:17;;;;;;;;;;;19.90;56.50;;;;;;5093680;28;19908;-71
2023/05/28 05:12:42;;;;;;;;;;;19.90;56.60;;;;;;5093646;28;19995;-71
2023/05/28 05:15:08;;;;;;;;;;;19.80;56.60;;;;;;5093669;28;20338;-71
2023/05/28 05:17:34;;;;;;;;;;;19.90;56.60;;;;;;5093736;28;19939;-71
2023/05/28 05:20:01;;;;;;;;;;;19.80;56.70;;;;;;5076063;28;20006;-71
2023/05/28 05:22:28;;;;;;;;;;;19.80;56.70;;;;;;5093515;28;19942;-71
2023/05/28 05:24:53;;;;;;;;;;;19.80;56.80;;;;;;5093825;28;19908;-71
2023/05/28 05:27:19;;;;;;;;;;;19.90;57.10;;;;;;5093396;28;20419;-71
2023/05/28 05:29:44;;;;;;;;;;;19.90;56.90;;;;;;5093747;28;19908;-71
2023/05/28 05:32:10;;;;;;;;;;;19.80;56.80;;;;;;5093700;28;19912;-71
2023/05/28 05:34:36;;;;;;;;;;;19.80;56.70;;;;;;5075437;28;19951;-71
2023/05/28 05:37:01;;;;;;;;;;;19.80;56.90;;;;;;5093565;28;19904;-71
2023/05/28 05:39:27;;;;;;;;;;;19.80;56.90;;;;;;5093467;28;19904;-71
2023/05/28 05:41:53;;;;;;;;;;;19.80;56.90;;;;;;5093397;28;19912;-71
2023/05/28 05:44:18;;;;;;;;;;;19.80;57.00;;;;;;5093576;28;19987;-70
2023/05/28 05:46:44;;;;;;;;;;;19.90;57.10;;;;;;5093563;28;19904;-71
2023/05/28 05:49:09;;;;;;;;;;;19.90;56.90;;;;;;5094280;28;19904;-70
2023/05/28 05:51:35;;;;;;;;;;;19.90;56.80;;;;;;5097008;28;19912;-70
2023/05/28 05:54:01;;;;;;;;;;;20.00;56.80;;;;;;5097021;28;19904;-70
2023/05/28 05:56:27;;;;;;;;;;;20.00;56.70;;;;;;5096863;28;19970;-71
2023/05/28 05:58:52;;;;;;;;;;;20.00;56.70;;;;;;5097019;28;20334;-71
2023/05/28 06:01:18;;;;;;;;;;;20.00;56.70;;;;;;5097209;28;20351;-71
2023/05/28 06:03:43;;;;;;;;;;;19.90;56.70;;;;;;5096853;28;19947;-71
2023/05/28 06:06:09;;;;;;;;;;;19.90;56.70;;;;;;5096112;28;19946;-71
2023/05/28 06:08:35;;;;;;;;;;;19.90;56.80;;;;;;5096323;28;19908;-71
2023/05/28 06:11:00;;;;;;;;;;;19.80;56.80;;;;;;5077908;28;19923;-71
2023/05/28 06:13:26;;;;;;;;;;;19.80;56.90;;;;;;5078864;28;19923;-70
2023/05/28 06:15:52;;;;;;;;;;;19.90;57.00;;;;;;5096161;28;19936;-70
2023/05/28 06:18:17;;;;;;;;;;;19.80;57.00;;;;;;5082098;28;19924;-71
2023/05/28 06:20:43;;;;;;;;;;;19.80;57.10;;;;;;5057780;28;20370;-70
2023/05/28 06:23:08;;;;;;;;;;;19.90;57.20;;;;;;5057377;28;20417;-71
2023/05/28 06:25:35;;;;;;;;;;;19.80;57.10;;;;;;5076099;28;19951;-71
2023/05/28 06:28:01;;;;;;;;;;;19.90;57.30;;;;;;5058188;28;20011;-70
2023/05/28 06:30:26;;;;;;;;;;;19.90;57.30;;;;;;5058106;28;20001;-70
2023/05/28 06:32:52;;;;;;;;;;;19.90;57.20;;;;;;5058328;28;19911;-70
2023/05/28 06:35:17;;;;;;;;;;;19.90;57.70;;;;;;5058042;28;19912;-74
2023/05/28 06:37:43;;;;;;;;;;;19.90;58.10;;;;;;5076059;28;19955;-72
2023/05/28 06:40:10;;;;;;;;;;;19.90;57.60;;;;;;5058183;28;20309;-72
2023/05/28 06:42:36;;;;;;;;;;;20.00;57.40;;;;;;5058695;28;19911;-71
2023/05/28 06:45:02;;;;;;;;;;;20.00;57.30;;;;;;5057653;28;19904;-71
2023/05/28 06:47:27;;;;;;;;;;;20.00;57.40;;;;;;5075850;28;19930;-71
2023/05/28 06:49:54;;;;;;;;;;;20.00;57.40;;;;;;5076068;28;20330;-71
2023/05/28 06:52:20;;;;;;;;;;;20.00;57.40;;;;;;5057670;28;20312;-71
2023/05/28 06:54:45;;;;;;;;;;;20.00;57.20;;;;;;5075836;28;19958;-71
2023/05/28 06:57:11;;;;;;;;;;;20.10;57.40;;;;;;5075811;28;19982;-71
2023/05/28 06:59:36;;;;;;;;;;;20.10;57.40;;;;;;5058012;28;19931;-71
2023/05/28 07:02:02;;;;;;;;;;;20.10;57.20;;;;;;5075620;28;19912;-71
2023/05/28 07:04:28;;;;;;;;;;;20.20;57.30;;;;;;5075594;28;19905;-70
2023/05/28 07:06:53;;;;;;;;;;;20.20;57.20;;;;;;5075233;28;19911;-71
2023/05/28 07:09:19;;;;;;;;;;;20.20;57.30;;;;;;5075477;28;19911;-71
2023/05/28 07:11:45;;;;;;;;;;;20.20;57.30;;;;;;5075380;28;19912;-71
2023/05/28 07:14:10;;;;;;;;;;;20.30;57.30;;;;;;5075245;28;19908;-72
2023/05/28 07:16:36;;;;;;;;;;;20.20;57.10;;;;;;5075595;28;19909;-72
2023/05/28 07:19:01;;;;;;;;;;;20.20;57.20;;;;;;5095069;28;19916;-73
2023/05/28 07:21:27;;;;;;;;;;;20.30;57.40;;;;;;5077486;28;19910;-72
2023/05/28 07:23:52;;;;;;;;;;;20.30;57.40;;;;;;5077032;28;19995;-72
2023/05/28 07:26:18;;;;;;;;;;;20.40;57.20;;;;;;5095329;28;19991;-72
2023/05/28 07:28:43;;;;;;;;;;;20.40;57.10;;;;;;5095460;28;19999;-72
2023/05/28 07:31:09;;;;;;;;;;;20.50;57.00;;;;;;5095312;28;19963;-72
2023/05/28 07:33:35;;;;;;;;;;;20.50;56.90;;;;;;5095431;28;20002;-72
2023/05/28 07:36:00;;;;;;;;;;;20.50;56.80;;;;;;5095126;28;19998;-72
2023/05/28 07:38:26;;;;;;;;;;;20.60;56.50;;;;;;5095542;28;20007;-72
2023/05/28 07:40:51;;;;;;;;;;;20.60;56.40;;;;;;5095285;28;19904;-72
2023/05/28 07:43:17;;;;;;;;;;;20.60;56.50;;;;;;5095173;28;19908;-72
2023/05/28 07:45:42;;;;;;;;;;;20.70;56.60;;;;;;5094887;28;19927;-72
2023/05/28 07:48:08;;;;;;;;;;;20.70;56.50;;;;;;5095074;28;20338;-72
2023/05/28 07:50:34;;;;;;;;;;;20.70;56.50;;;;;;5094817;28;20269;-72
2023/05/28 07:53:01;;;;;;;;;;;20.80;56.60;;;;;;5076886;28;19950;-72
2023/05/28 07:55:27;;;;;;;;;;;20.80;56.70;;;;;;5076830;28;19908;-72
2023/05/28 07:57:52;;;;;;;;;;;20.80;56.50;;;;;;5094925;28;20373;-72
2023/05/28 08:00:18;;;;;;;;;;;20.90;56.30;;;;;;5076901;28;19904;-72
2023/05/28 08:02:44;;;;;;;;;;;20.90;56.40;;;;;;5094711;28;20373;-72
2023/05/28 08:05:09;;;;;;;;;;;20.90;56.40;;;;;;5094867;28;19904;-72
2023/05/28 08:07:35;;;;;;;;;;;20.90;55.90;;;;;;5094544;28;19904;-72
2023/05/28 08:10:01;;;;;;;;;;;20.90;56.10;;;;;;5094689;28;19949;-72
2023/05/28 08:12:26;;;;;;;;;;;20.90;56.10;;;;;;5094098;28;19916;-72
2023/05/28 08:14:52;;;;;;;;;;;21.00;56.00;;;;;;5094563;28;20350;-72
2023/05/28 08:17:20;;;;;;;;;;;20.90;55.80;;;;;;5076161;28;20011;-72
2023/05/28 08:19:45;;;;;;;;;;;21.00;55.70;;;;;;5094654;28;19911;-72
2023/05/28 08:22:11;;;;;;;;;;;20.90;55.70;;;;;;5076313;28;19904;-72
2023/05/28 08:24:37;;;;;;;;;;;20.90;55.10;;;;;;5094506;28;19907;-72
2023/05/28 08:27:02;;;;;;;;;;;20.90;55.40;;;;;;5076212;28;19908;-72
2023/05/28 08:29:28;;;;;;;;;;;20.90;55.80;;;;;;5094554;28;19912;-72
2023/05/28 08:31:53;;;;;;;;;;;21.00;55.90;;;;;;5076126;28;19912;-72
2023/05/28 08:34:19;;;;;;;;;;;21.00;55.80;;;;;;5094373;28;19904;-72
2023/05/28 08:36:45;;;;;;;;;;;21.00;55.70;;;;;;5075837;28;20000;-72
2023/05/28 08:39:11;;;;;;;;;;;21.10;55.60;;;;;;5094501;28;20214;-72
2023/05/28 08:41:37;;;;;;;;;;;21.10;55.30;;;;;;5094262;28;19908;-72
2023/05/28 08:44:02;;;;;;;;;;;21.20;55.20;;;;;;5076100;28;19939;-72
2023/05/28 08:46:30;;;;;;;;;;;21.20;55.30;;;;;;5094012;28;19947;-72
2023/05/28 08:48:55;;;;;;;;;;;21.30;55.10;;;;;;5094285;28;20007;-72
2023/05/28 08:51:23;;;;;;;;;;;21.40;55.00;;;;;;5093749;28;20019;-72
2023/05/28 08:53:49;;;;;;;;;;;21.40;54.80;;;;;;5094199;28;20350;-72
2023/05/28 08:56:14;;;;;;;;;;;21.40;54.70;;;;;;5094250;28;19911;-72
2023/05/28 08:58:40;;;;;;;;;;;21.50;54.80;;;;;;5094109;28;19911;-72
2023/05/28 09:01:06;;;;;;;;;;;21.50;54.70;;;;;;5093920;28;19910;-72
2023/05/28 09:03:32;;;;;;;;;;;21.60;54.30;;;;;;5075816;28;19904;-72
2023/05/28 09:05:58;;;;;;;;;;;21.60;54.10;;;;;;5093910;28;20338;-72
2023/05/28 09:08:23;;;;;;;;;;;21.70;54.20;;;;;;5093658;28;19912;-71
2023/05/28 09:10:49;;;;;;;;;;;21.70;54.20;;;;;;5093920;28;19933;-71
2023/05/28 09:13:19;;;;;;;;;;;21.70;54.20;;;;;;5094001;28;19910;-71
2023/05/28 09:15:49;;;;;;;;;;;21.80;54.10;;;;;;5076006;28;19904;-71
2023/05/28 09:18:18;;;;;;;;;;;21.80;53.90;;;;;;5093326;28;19922;-71
2023/05/28 09:20:44;;;;;;;;;;;21.90;53.90;;;;;;5093657;28;19904;-71
2023/05/28 09:23:10;;;;;;;;;;;21.90;53.40;;;;;;5093929;28;19911;-71
2023/05/28 09:25:36;;;;;;;;;;;22.00;53.70;;;;;;5078994;28;20284;-71
2023/05/28 09:28:02;;;;;;;;;;;22.00;53.10;;;;;;5097875;28;19904;-71
2023/05/28 09:30:29;;;;;;;;;;;22.10;52.90;;;;;;5097999;28;19912;-72
2023/05/28 09:33:05;;;;;;;;;;;22.10;52.90;;;;;;5097577;28;19931;-71
2023/05/28 09:35:30;;;;;;;;;;;22.20;53.00;;;;;;5097746;28;19911;-71
2023/05/28 09:38:08;;;;;;;;;;;22.20;53.00;;;;;;5097284;28;19907;-71
2023/05/28 09:40:41;;;;;;;;;;;22.30;51.70;;;;;;5079443;28;20266;-72
2023/05/28 09:43:07;;;;;;;;;;;22.30;51.90;;;;;;5097441;28;20274;-71
2023/05/28 09:45:36;;;;;;;;;;;22.40;51.70;;;;;;5097305;28;19904;-71
2023/05/28 09:48:02;;;;;;;;;;;22.40;51.20;;;;;;5097359;28;19904;-71
2023/05/28 09:50:27;;;;;;;;;;;22.40;51.20;;;;;;5079291;28;19911;-71
2023/05/28 09:52:57;;;;;;;;;;;22.50;51.00;;;;;;5097192;28;19904;-71
2023/05/28 09:55:26;;;;;;;;;;;22.50;50.80;;;;;;5097104;28;19911;-71
2023/05/28 09:58:05;;;;;;;;;;;22.60;50.30;;;;;;5096761;28;19904;-72
2023/05/28 10:00:46;;;;;;;;;;;22.60;50.60;;;;;;5097059;28;19911;-72
2023/05/28 10:03:12;;;;;;;;;;;22.60;50.20;;;;;;5078836;28;20002;-71
2023/05/28 10:05:40;;;;;;;;;;;22.60;50.30;;;;;;5096980;28;19959;-71
2023/05/28 10:08:07;;;;;;;;;;;22.70;49.90;;;;;;5078467;28;20342;-72
2023/05/28 10:10:33;;;;;;;;;;;22.70;49.70;;;;;;5078744;28;19904;-71
2023/05/28 10:12:59;;;;;;;;;;;22.80;50.20;;;;;;5078807;28;19911;-71
2023/05/28 10:15:25;;;;;;;;;;;22.80;50.60;;;;;;5097022;28;19904;-71
2023/05/28 10:17:50;;;;;;;;;;;22.80;49.30;;;;;;5096408;28;19916;-71
2023/05/28 10:20:16;;;;;;;;;;;22.90;49.50;;;;;;5097127;28;19915;-71
2023/05/28 10:22:42;;;;;;;;;;;22.90;48.70;;;;;;5096411;28;19904;-71
2023/05/28 10:25:08;;;;;;;;;;;22.90;48.50;;;;;;5078088;28;19904;-71
2023/05/28 10:27:37;;;;;;;;;;;22.90;48.80;;;;;;5096534;28;19908;-71
2023/05/28 10:30:04;;;;;;;;;;;23.00;49.00;;;;;;5096682;28;20354;-71
2023/05/28 10:32:30;;;;;;;;;;;23.00;49.10;;;;;;5077913;28;20393;-71
2023/05/28 10:35:02;;;;;;;;;;;23.00;48.90;;;;;;5096298;28;19904;-71
2023/05/28 10:37:28;;;;;;;;;;;23.10;48.50;;;;;;5095079;28;19911;-71
2023/05/28 10:39:53;;;;;;;;;;;23.00;48.60;;;;;;5096217;28;20338;-71
2023/05/28 10:42:21;;;;;;;;;;;23.10;48.90;;;;;;5096312;28;19904;-71
2023/05/28 10:44:49;;;;;;;;;;;23.10;48.70;;;;;;5096237;28;19962;-71
2023/05/28 10:47:16;;;;;;;;;;;23.20;48.50;;;;;;5077973;28;19904;-71
2023/05/28 10:50:00;;;;;;;;;;;23.20;48.50;;;;;;5096094;28;20045;-71
2023/05/28 10:52:26;;;;;;;;;;;23.20;48.80;;;;;;5096493;28;20445;-71
2023/05/28 10:54:52;;;;;;;;;;;23.20;48.00;;;;;;5096245;28;19957;-71
2023/05/28 10:57:21;;;;;;;;;;;23.30;48.10;;;;;;5096238;28;19915;-71
2023/05/28 10:59:51;;;;;;;;;;;23.30;48.10;;;;;;5096141;28;20384;-71
2023/05/28 11:02:17;;;;;;;;;;;23.30;48.00;;;;;;5077895;28;19907;-71
2023/05/28 11:04:42;;;;;;;;;;;23.40;48.10;;;;;;5095635;28;19935;-71
2023/05/28 11:07:08;;;;;;;;;;;23.40;47.00;;;;;;5095948;28;19911;-71
2023/05/28 11:09:34;;;;;;;;;;;23.40;48.00;;;;;;5095787;28;19904;-71
2023/05/28 11:12:01;;;;;;;;;;;23.40;47.80;;;;;;5077370;28;19912;-71
2023/05/28 11:14:34;;;;;;;;;;;23.50;48.00;;;;;;5095621;28;19968;-71
2023/05/28 11:17:00;;;;;;;;;;;23.50;47.90;;;;;;5095606;28;19927;-71
2023/05/28 11:19:25;;;;;;;;;;;23.50;47.40;;;;;;5095787;28;19904;-71
2023/05/28 11:21:51;;;;;;;;;;;23.60;47.70;;;;;;5095860;28;19907;-71
2023/05/28 11:24:17;;;;;;;;;;;23.60;47.40;;;;;;5095536;28;20358;-71
2023/05/28 11:26:42;;;;;;;;;;;23.60;47.20;;;;;;5095478;28;19910;-71
2023/05/28 11:29:09;;;;;;;;;;;23.60;46.90;;;;;;5095313;28;19914;-71
2023/05/28 11:31:41;;;;;;;;;;;23.60;47.10;;;;;;5095060;28;19923;-72
2023/05/28 11:34:07;;;;;;;;;;;23.60;47.00;;;;;;5095595;28;19939;-72
2023/05/28 11:36:43;;;;;;;;;;;23.70;46.90;;;;;;5076954;28;19904;-71
2023/05/28 11:39:08;;;;;;;;;;;23.80;46.80;;;;;;5077419;28;19904;-71
2023/05/28 11:41:34;;;;;;;;;;;23.80;47.00;;;;;;5077153;28;20308;-71
2023/05/28 11:44:00;;;;;;;;;;;23.90;47.20;;;;;;5094699;28;19947;-71
2023/05/28 11:46:25;;;;;;;;;;;23.90;46.90;;;;;;5094803;28;19908;-72
2023/05/28 11:48:51;;;;;;;;;;;24.00;46.70;;;;;;5076704;28;19904;-72
2023/05/28 11:51:18;;;;;;;;;;;24.10;46.70;;;;;;5094929;28;19916;-71
2023/05/28 11:53:44;;;;;;;;;;;24.10;46.60;;;;;;5094828;28;19925;-71
2023/05/28 11:56:10;;;;;;;;;;;24.10;46.10;;;;;;5094724;28;19904;-72
2023/05/28 11:58:41;;;;;;;;;;;24.20;46.30;;;;;;5076420;28;19904;-72
2023/05/28 12:01:07;;;;;;;;;;;24.20;46.30;;;;;;5076679;28;20368;-71
2023/05/28 12:03:33;;;;;;;;;;;24.30;46.60;;;;;;5095048;28;19911;-71
2023/05/28 12:05:59;;;;;;;;;;;24.30;45.50;;;;;;5094910;28;19904;-71
2023/05/28 12:08:26;;;;;;;;;;;24.30;45.70;;;;;;5094950;28;19907;-71
2023/05/28 12:10:51;;;;;;;;;;;24.40;45.60;;;;;;5094353;28;20011;-71
2023/05/28 12:13:17;;;;;;;;;;;24.40;45.80;;;;;;5094530;28;19958;-71
2023/05/28 12:15:43;;;;;;;;;;;24.50;45.80;;;;;;5094652;28;19950;-72
2023/05/28 12:18:09;;;;;;;;;;;24.50;45.70;;;;;;5093970;28;19916;-72
2023/05/28 12:20:37;;;;;;;;;;;24.60;45.90;;;;;;5094761;28;19904;-72
2023/05/28 12:23:09;;;;;;;;;;;24.60;45.30;;;;;;5094622;28;19911;-71
2023/05/28 12:25:55;;;;;;;;;;;24.70;45.60;;;;;;5094313;28;20268;-71
2023/05/28 12:28:22;;;;;;;;;;;24.80;45.50;;;;;;5093938;28;19915;-71
2023/05/28 12:30:50;;;;;;;;;;;24.80;45.30;;;;;;5094276;28;19924;-71
2023/05/28 12:33:16;;;;;;;;;;;24.90;45.10;;;;;;5094006;28;19911;-71
2023/05/28 12:35:41;;;;;;;;;;;25.00;45.10;;;;;;5094114;28;20261;-71
2023/05/28 12:38:07;;;;;;;;;;;25.10;45.00;;;;;;5094067;28;19908;-72
2023/05/28 12:40:32;;;;;;;;;;;25.20;44.70;;;;;;5093887;28;19954;-71
2023/05/28 12:42:58;;;;;;;;;;;25.30;44.60;;;;;;5094029;28;19904;-72
2023/05/28 12:45:23;;;;;;;;;;;25.40;44.70;;;;;;5076429;28;19911;-71
2023/05/28 12:47:49;;;;;;;;;;;25.50;44.50;;;;;;5076186;28;20364;-72
2023/05/28 12:50:15;;;;;;;;;;;25.50;44.30;;;;;;5076123;28;19904;-71
2023/05/28 12:52:40;;;;;;;;;;;25.60;43.80;;;;;;5093996;28;19912;-72
2023/05/28 12:55:06;;;;;;;;;;;25.70;43.60;;;;;;5094027;28;20073;-71
2023/05/28 12:57:32;;;;;;;;;;;25.80;43.80;;;;;;5094415;28;19904;-72
2023/05/28 12:59:57;;;;;;;;;;;25.90;44.00;;;;;;5079298;28;20308;-71
2023/05/28 13:02:23;;;;;;;;;;;26.00;43.40;;;;;;5082490;28;19935;-72
2023/05/28 13:04:48;;;;;;;;;;;26.10;43.60;;;;;;5100540;28;19904;-71
2023/05/28 13:07:14;;;;;;;;;;;26.10;43.30;;;;;;5100611;28;20384;-71
2023/05/28 13:09:39;;;;;;;;;;;26.30;43.40;;;;;;5082246;28;19958;-72
2023/05/28 13:12:05;;;;;;;;;;;26.40;44.00;;;;;;5082243;28;19912;-72
2023/05/28 13:14:31;;;;;;;;;;;26.50;42.90;;;;;;5101184;28;19994;-71
2023/05/28 13:16:57;;;;;;;;;;;26.60;42.50;;;;;;5100476;28;19912;-72
2023/05/28 13:19:23;;;;;;;;;;;26.80;43.30;;;;;;5100967;28;19904;-71
2023/05/28 13:21:49;;;;;;;;;;;26.90;42.60;;;;;;5100380;28;19912;-72
2023/05/28 13:24:14;;;;;;;;;;;27.00;42.80;;;;;;5100329;28;19904;-72
2023/05/28 13:26:40;;;;;;;;;;;27.20;42.20;;;;;;5100513;28;19904;-72
2023/05/28 13:29:06;;;;;;;;;;;27.60;42.60;;;;;;5082160;28;20374;-72
2023/05/28 13:31:32;;;;;;;;;;;28.00;42.70;;;;;;5100207;28;19916;-72
2023/05/28 13:33:58;;;;;;;;;;;28.50;43.20;;;;;;5100709;28;20014;-72
2023/05/28 13:36:23;;;;;;;;;;;28.90;42.80;;;;;;5100210;28;20366;-72
2023/05/28 13:38:49;;;;;;;;;;;29.40;43.20;;;;;;5100814;28;19986;-72
2023/05/28 13:41:15;;;;;;;;;;;29.90;42.40;;;;;;5100497;28;19904;-72
2023/05/28 13:43:41;;;;;;;;;;;30.40;42.90;;;;;;5100286;28;19905;-72
2023/05/28 13:46:07;;;;;;;;;;;31.00;43.10;;;;;;5081919;28;19915;-72
2023/05/28 13:48:33;;;;;;;;;;;31.50;41.60;;;;;;5082391;28;19904;-72
2023/05/28 13:50:59;;;;;;;;;;;32.10;42.60;;;;;;5100127;28;19912;-72
2023/05/28 13:53:26;;;;;;;;;;;32.50;41.70;;;;;;5100245;28;19949;-72
2023/05/28 13:55:51;;;;;;;;;;;32.80;41.80;;;;;;5082450;28;19904;-72
2023/05/28 13:58:17;;;;;;;;;;;33.00;41.10;;;;;;5100379;28;20383;-72
2023/05/28 14:00:42;;;;;;;;;;;33.20;41.40;;;;;;5099991;28;20342;-72
2023/05/28 14:03:08;;;;;;;;;;;33.40;41.60;;;;;;5100076;28;19957;-70
2023/05/28 14:05:36;;;;;;;;;;;33.60;40.90;;;;;;5081939;28;20045;-70
2023/05/28 14:08:01;;;;;;;;;;;33.70;41.40;;;;;;5100246;28;20002;-72
2023/05/28 14:10:27;;;;;;;;;;;33.80;40.10;;;;;;5099814;28;19981;-71